Flight Track Log - Related Links

Times and Time Zones

All times are in EDT time to prevent confusion due to time zone crossing. See the N2266Q flight status page for this flight to view local times or setup timezone preferences in your user account.

Time Position Orientation Groundspeed Altitude Reporting Facility
EDT Latitude Longitude Course Direction KTS MPH feet Rate Location/Type
Sat 06:00:04 PM 43.0183 -97.3139 42° Northeast 119 137 5,000  Level Minneapolis Center
Sat 06:01:06 PM 43.0461 -97.2747 46° Northeast 119 137 5,000  Level Minneapolis Center
Sat 06:02:07 PM 43.0719 -97.2397 45° Northeast 124 143 5,000  Level Minneapolis Center
Sat 06:03:08 PM 43.0975 -97.2042 45° Northeast 128 147 5,000  Level Minneapolis Center
Sat 06:04:00 PM 43.0768 -97.1445 41° Northeast  Level FlightAware Approximate
Sat 06:04:10 PM 43.1236 -97.1697 44° Northeast 130 150 5,000  Level Minneapolis Center
Sat 06:05:00 PM 43.1067 -97.1083 42° Northeast  Level FlightAware Approximate
Sat 06:05:11 PM 43.1483 -97.1333 47° Northeast 131 151 5,000  Level Minneapolis Center
Sat 06:06:12 PM 43.1742 -97.0981 45° Northeast 131 151 5,000  Level Minneapolis Center
Sat 06:07:14 PM 43.2022 -97.0619 43° Northeast 131 151 5,000  Level Minneapolis Center
Sat 06:08:15 PM 43.2269 -97.0272 46° Northeast 132 152 5,000  Level Minneapolis Center
Sat 06:09:17 PM 43.2575 -96.9844 46° Northeast 132 152 5,000  Level Minneapolis Center
Sat 06:10:18 PM 43.2842 -96.9472 45° Northeast 134 154 5,000  Level Minneapolis Center
Sat 06:11:19 PM 43.3106 -96.9106 45° Northeast 135 155 5,000  Level Minneapolis Center
Sat 06:12:21 PM 43.3361 -96.8744 46° Northeast 134 154 5,000  Level Minneapolis Center
Sat 06:13:22 PM 43.3622 -96.8386 45° Northeast 133 153 5,000  Level Minneapolis Center
Sat 06:14:24 PM 43.3883 -96.8028 45° Northeast 133 153 5,000  Level Minneapolis Center
Sat 06:15:25 PM 43.4144 -96.7650 46° Northeast 134 154 5,000  Level Minneapolis Center
Sat 06:16:27 PM 43.4414 -96.7281 45° Northeast 135 155 5,000  Level Minneapolis Center
Sat 06:17:28 PM 43.4686 -96.6908 45° Northeast 137 158 5,000  Level Minneapolis Center
Sat 06:18:29 PM 43.5014 -96.6450 45° Northeast 138 159 5,000  Level Minneapolis Center
Sat 06:19:31 PM 43.5281 -96.6078 45° Northeast 138 159 5,000  Level Minneapolis Center
Sat 06:20:32 PM 43.5567 -96.5692 44° Northeast 138 159 5,000  Level Minneapolis Center
Sat 06:21:34 PM 43.5822 -96.5336 45° Northeast 138 159 5,000  Level Minneapolis Center
Sat 06:22:35 PM 43.6083 -96.4944 47° Northeast 138 159 5,000  Level Minneapolis Center
Sat 06:23:37 PM 43.6353 -96.4581 44° Northeast 138 159 5,000  Level Minneapolis Center
Sat 06:24:38 PM 43.6619 -96.4197 46° Northeast 138 159 5,000  Level Minneapolis Center
Sat 06:25:52 PM 43.6897 -96.3811 45° Northeast 139 160 5,000  Level Minneapolis Center
Sat 06:26:54 PM 43.7286 -96.3258 46° Northeast 142 163 5,000  Level Minneapolis Center
Sat 06:27:55 PM 43.7558 -96.2872 46° Northeast 142 163 5,000  Level Minneapolis Center
Sat 06:28:57 PM 43.7831 -96.2489 45° Northeast 141 162 5,000  Level Minneapolis Center
Sat 06:29:58 PM 43.8100 -96.2103 46° Northeast 140 161 5,000  Level Minneapolis Center
Sat 06:31:00 PM 43.8375 -96.1708 46° Northeast 141 162 5,000  Level Minneapolis Center
Sat 06:32:01 PM 43.8656 -96.1311 46° Northeast 143 165 5,000  Level Minneapolis Center
Sat 06:33:03 PM 43.8936 -96.0919 45° Northeast 144 166 5,000  Level Minneapolis Center
Sat 06:34:04 PM 43.9264 -96.0442 46° Northeast 143 165 5,000  Level Minneapolis Center
Sat 06:35:06 PM 43.9539 -96.0050 46° Northeast 143 165 5,000  Level Minneapolis Center
Sat 06:36:07 PM 43.9819 -95.9653 46° Northeast 144 166 5,000  Level Minneapolis Center
Sat 06:37:09 PM 44.0097 -95.9258 46° Northeast 144 166 5,000  Level Minneapolis Center
Sat 06:38:22 PM 44.0425 -95.8783 46° Northeast 143 165 5,000  Level Minneapolis Center
Sat 06:39:24 PM 44.0694 -95.8394 46° Northeast 142 163 5,000  Level Minneapolis Center
Sat 06:40:25 PM 44.1022 -95.7922 46° Northeast 142 163 5,000  Level Minneapolis Center
Sat 06:41:27 PM 44.1294 -95.7519 47° Northeast 142 163 5,000  Level Minneapolis Center
Sat 06:42:28 PM 44.1572 -95.7133 45° Northeast 143 165 5,000  Level Minneapolis Center
Sat 06:43:30 PM 44.1853 -95.6736 45° Northeast 143 165 5,000  Level Minneapolis Center
Sat 06:44:31 PM 44.2122 -95.6339 47° Northeast 143 165 5,000  Level Minneapolis Center
Sat 06:45:33 PM 44.2397 -95.5931 47° Northeast 143 165 5,000  Level Minneapolis Center
Sat 06:46:34 PM 44.2667 -95.5536 46° Northeast 143 165 5,000  Level Minneapolis Center
Sat 06:47:36 PM 44.2944 -95.5142 45° Northeast 142 163 5,000  Level Minneapolis Center
Sat 06:48:37 PM 44.3272 -95.4667 46° Northeast 143 165 5,000  Level Minneapolis Center
Sat 06:49:39 PM 44.3553 -95.4261 46° Northeast 144 166 5,000  Level Minneapolis Center
Sat 06:50:52 PM 44.3828 -95.3844 47° Northeast 145 167 5,000  Level Minneapolis Center
Sat 06:51:54 PM 44.4161 -95.3356 46° Northeast 145 167 5,000  Level Minneapolis Center
Sat 06:52:56 PM 44.4436 -95.2956 46° Northeast 145 167 5,000  Level Minneapolis Center
Sat 06:53:57 PM 44.4719 -95.2550 46° Northeast 145 167 5,000  Level Minneapolis Center
Sat 06:54:59 PM 44.4986 -95.2144 47° Northeast 144 166 5,000  Level Minneapolis Center
Sat 06:56:00 PM 44.5314 -95.1653 47° Northeast 144 166 5,000  Level Minneapolis Center
Sat 06:57:02 PM 44.5594 -95.1247 46° Northeast 144 166 5,000  Level Minneapolis Center
Sat 06:58:03 PM 44.5869 -95.0850 46° Northeast 144 166 5,000  Level Minneapolis Center
Sat 06:59:05 PM 44.6139 -95.0450 47° Northeast 142 163 5,000  Level Minneapolis Center
Sat 07:00:06 PM 44.6403 -95.0036 48° Northeast 143 165 5,000  Level Minneapolis Center
Sat 07:01:08 PM 44.6669 -94.9639 47° Northeast 141 162 5,000  Level Minneapolis Center
Sat 07:02:21 PM 44.6950 -94.9236 46° Northeast 142 163 5,000  Level Minneapolis Center
Sat 07:03:23 PM 44.7281 -94.8750 46° Northeast 143 165 5,000  Level Minneapolis Center
Sat 07:04:25 PM 44.7619 -94.8253 46° Northeast 145 167 5,000  Level Minneapolis Center
Sat 07:05:26 PM 44.7892 -94.7828 48° Northeast 146 168 5,000  Level Minneapolis Center
Sat 07:06:28 PM 44.8172 -94.7417 46° Northeast 146 168 5,000  Level Minneapolis Center
Sat 07:07:29 PM 44.8447 -94.7011 46° Northeast 146 168 5,000  Level Minneapolis Center
Sat 07:08:31 PM 44.8731 -94.6589 47° Northeast 146 168 5,000  Level Minneapolis Center
Sat 07:09:32 PM 44.9006 -94.6175 47° Northeast 146 168 5,000 -49 Level Minneapolis Center
Sat 07:10:34 PM 44.9294 -94.5753 46° Northeast 149 171 4,900  Descending Minneapolis Center
Sat 07:11:35 PM 44.9447 -94.5353 62° Northeast 147 169 5,000 49 Climbing Minneapolis Center
Sat 07:12:37 PM 44.9753 -94.4686 57° Northeast 147 169 5,000  Level Minneapolis Center
Sat 07:13:38 PM 44.9972 -94.4214 57° Northeast 146 168 5,000  Level Minneapolis Center
Sat 07:14:40 PM 45.0175 -94.3731 59° Northeast 144 166 5,000  Level Minneapolis Center
Sat 07:15:41 PM 45.0397 -94.3236 58° Northeast 149 171 5,000  Level Minneapolis Center
Sat 07:16:42 PM 45.0606 -94.2761 58° Northeast 145 167 5,000  Level Minneapolis Center
Sat 07:17:45 PM 45.0814 -94.2294 58° Northeast 142 163 5,000  Level Minneapolis Center
Sat 07:18:46 PM 45.1022 -94.1817 58° Northeast 142 163 5,000  Level Minneapolis Center
Sat 07:19:48 PM 45.1281 -94.1247 57° Northeast 142 163 5,000  Level Minneapolis Center
Sat 07:20:49 PM 45.1494 -94.0769 58° Northeast 144 166 5,000  Level Minneapolis Center
Sat 07:21:50 PM 45.1700 -94.0289 59° Northeast 143 165 5,000  Level Minneapolis Center
Sat 07:22:52 PM 45.1906 -93.9811 59° Northeast 143 165 5,000  Level Minneapolis Center
Sat 07:23:53 PM 45.2119 -93.9325 58° Northeast 145 167 5,000  Level Minneapolis Center
Sat 07:24:55 PM 45.2328 -93.8842 59° Northeast 145 167 5,000  Level Minneapolis Center
Sat 07:25:56 PM 45.2547 -93.8358 57° Northeast 145 167 5,000  Level Minneapolis Center
Sat 07:26:57 PM 45.2756 -93.7869 59° Northeast 145 167 5,000  Level Minneapolis Center
Sat 07:27:59 PM 45.2969 -93.7378 58° Northeast 147 169 5,000  Level Minneapolis Center
Sat 07:29:00 PM 45.3225 -93.6783 59° Northeast 147 169 5,000 -98 Level Minneapolis Center
Sat 07:30:01 PM 45.3439 -93.6289 58° Northeast 148 170 4,800 -341 Descending Minneapolis Center
Sat 07:31:03 PM 45.3628 -93.5761 63° Northeast 151 174 4,300 -585 Descending Minneapolis Center
Sat 07:32:04 PM 45.3814 -93.5217 64° Northeast 153 176 3,600 -590 Descending Minneapolis Center
Sat 07:33:05 PM 45.4211 -93.5194 North 156 180 3,100 -341 Descending Minneapolis Center
Sat 07:34:07 PM 45.4539 -93.5447 332° Northwest 134 154 2,900 -195 Descending Minneapolis Center
Sat 07:35:08 PM 45.4817 -93.5639 334° Northwest 113 130 2,700 -393 Descending Minneapolis Center
Sat 07:36:09 PM 45.5086 -93.5794 338° Northwest 106 122 2,100 -537 Descending Minneapolis Center
Sat 07:37:11 PM 45.5350 -93.6019 329° Northwest 105 121 1,600 -484 Descending Minneapolis Center

Login

Don't have an account? Register now (free) for customized features, flight alerts, and more!